sensor_id;sensor_type;location;lat;lon;timestamp;temperature;humidity
30381;DHT22;17169;50.966;11.038;2022-08-21T00:01:33;18.20;99.90
30381;DHT22;17169;50.966;11.038;2022-08-21T00:04:36;18.10;99.90
30381;DHT22;17169;50.966;11.038;2022-08-21T00:07:38;18.10;99.90
30381;DHT22;17169;50.966;11.038;2022-08-21T00:10:42;18.10;99.90
30381;DHT22;17169;50.966;11.038;2022-08-21T00:13:44;18.00;99.90
30381;DHT22;17169;50.966;11.038;2022-08-21T00:16:48;18.00;99.90
30381;DHT22;17169;50.966;11.038;2022-08-21T00:19:51;17.90;99.90
30381;DHT22;17169;50.966;11.038;2022-08-21T00:22:53;17.80;99.90
30381;DHT22;17169;50.966;11.038;2022-08-21T00:25:55;17.80;99.90
30381;DHT22;17169;50.966;11.038;2022-08-21T00:28:58;17.70;99.90
30381;DHT22;17169;50.966;11.038;2022-08-21T00:32:02;17.70;99.90
30381;DHT22;17169;50.966;11.038;2022-08-21T00:35:06;17.70;99.90
30381;DHT22;17169;50.966;11.038;2022-08-21T00:38:09;17.60;99.90
30381;DHT22;17169;50.966;11.038;2022-08-21T00:41:12;17.60;99.90
30381;DHT22;17169;50.966;11.038;2022-08-21T00:44:15;17.60;99.90
30381;DHT22;17169;50.966;11.038;2022-08-21T00:47:19;17.50;99.90
30381;DHT22;17169;50.966;11.038;2022-08-21T00:50:23;17.50;99.90
30381;DHT22;17169;50.966;11.038;2022-08-21T00:53:28;17.50;99.90
30381;DHT22;17169;50.966;11.038;2022-08-21T00:56:31;17.50;99.90
30381;DHT22;17169;50.966;11.038;2022-08-21T00:59:36;17.50;99.90
30381;DHT22;17169;50.966;11.038;2022-08-21T01:02:41;17.50;99.90
30381;DHT22;17169;50.966;11.038;2022-08-21T01:05:44;17.50;99.90
30381;DHT22;17169;50.966;11.038;2022-08-21T01:08:47;17.50;99.90
30381;DHT22;17169;50.966;11.038;2022-08-21T01:11:50;17.60;99.90
30381;DHT22;17169;50.966;11.038;2022-08-21T01:14:53;17.60;99.90
30381;DHT22;17169;50.966;11.038;2022-08-21T01:17:57;17.60;99.90
30381;DHT22;17169;50.966;11.038;2022-08-21T01:21:03;17.60;99.90
30381;DHT22;17169;50.966;11.038;2022-08-21T01:24:06;17.70;99.90
30381;DHT22;17169;50.966;11.038;2022-08-21T01:27:09;17.60;99.90
30381;DHT22;17169;50.966;11.038;2022-08-21T01:30:13;17.50;99.90
30381;DHT22;17169;50.966;11.038;2022-08-21T01:33:18;17.40;99.90
30381;DHT22;17169;50.966;11.038;2022-08-21T01:36:24;17.40;99.90
30381;DHT22;17169;50.966;11.038;2022-08-21T01:39:26;17.40;99.90
30381;DHT22;17169;50.966;11.038;2022-08-21T01:42:29;17.30;99.90
30381;DHT22;17169;50.966;11.038;2022-08-21T01:45:31;17.30;99.90
30381;DHT22;17169;50.966;11.038;2022-08-21T01:48:34;17.20;99.90
30381;DHT22;17169;50.966;11.038;2022-08-21T01:51:38;17.10;99.90
30381;DHT22;17169;50.966;11.038;2022-08-21T01:54:42;17.10;99.90
30381;DHT22;17169;50.966;11.038;2022-08-21T01:57:45;17.10;99.90
30381;DHT22;17169;50.966;11.038;2022-08-21T02:00:48;17.00;99.90
30381;DHT22;17169;50.966;11.038;2022-08-21T02:03:50;17.00;99.90
30381;DHT22;17169;50.966;11.038;2022-08-21T02:06:54;17.00;99.90
30381;DHT22;17169;50.966;11.038;2022-08-21T02:09:57;17.00;99.90
30381;DHT22;17169;50.966;11.038;2022-08-21T02:13:00;17.00;99.90
30381;DHT22;17169;50.966;11.038;2022-08-21T02:16:03;17.00;99.90
30381;DHT22;17169;50.966;11.038;2022-08-21T02:19:05;17.00;99.90
30381;DHT22;17169;50.966;11.038;2022-08-21T02:22:10;16.90;99.90
30381;DHT22;17169;50.966;11.038;2022-08-21T02:25:13;16.90;99.90
30381;DHT22;17169;50.966;11.038;2022-08-21T02:28:15;16.80;99.90
30381;DHT22;17169;50.966;11.038;2022-08-21T02:31:18;16.80;99.90
30381;DHT22;17169;50.966;11.038;2022-08-21T02:34:21;16.80;99.90
30381;DHT22;17169;50.966;11.038;2022-08-21T02:37:25;16.70;99.90
30381;DHT22;17169;50.966;11.038;2022-08-21T02:40:30;16.70;99.90
30381;DHT22;17169;50.966;11.038;2022-08-21T02:43:33;16.60;99.90
30381;DHT22;17169;50.966;11.038;2022-08-21T02:46:36;16.60;99.90
30381;DHT22;17169;50.966;11.038;2022-08-21T02:49:38;16.60;99.90
30381;DHT22;17169;50.966;11.038;2022-08-21T02:52:42;16.60;99.90
30381;DHT22;17169;50.966;11.038;2022-08-21T02:55:47;16.70;99.90
30381;DHT22;17169;50.966;11.038;2022-08-21T02:58:51;16.70;99.90
30381;DHT22;17169;50.966;11.038;2022-08-21T03:01:54;16.70;99.90
30381;DHT22;17169;50.966;11.038;2022-08-21T03:04:57;16.70;99.90
30381;DHT22;17169;50.966;11.038;2022-08-21T03:08:02;16.80;99.90
30381;DHT22;17169;50.966;11.038;2022-08-21T03:11:05;16.70;99.90
30381;DHT22;17169;50.966;11.038;2022-08-21T03:14:07;16.70;99.90
30381;DHT22;17169;50.966;11.038;2022-08-21T03:17:10;16.60;99.90
30381;DHT22;17169;50.966;11.038;2022-08-21T03:20:14;16.60;99.90
30381;DHT22;17169;50.966;11.038;2022-08-21T03:23:18;16.50;99.90
30381;DHT22;17169;50.966;11.038;2022-08-21T03:26:21;16.40;99.90
30381;DHT22;17169;50.966;11.038;2022-08-21T03:29:23;16.40;99.90
30381;DHT22;17169;50.966;11.038;2022-08-21T03:32:26;16.40;99.90
30381;DHT22;17169;50.966;11.038;2022-08-21T03:35:29;16.40;99.90
30381;DHT22;17169;50.966;11.038;2022-08-21T03:38:34;16.30;99.90
30381;DHT22;17169;50.966;11.038;2022-08-21T03:41:37;16.20;99.90
30381;DHT22;17169;50.966;11.038;2022-08-21T03:44:39;16.20;99.90
30381;DHT22;17169;50.966;11.038;2022-08-21T03:47:51;16.30;99.90
30381;DHT22;17169;50.966;11.038;2022-08-21T03:50:53;16.30;99.90
30381;DHT22;17169;50.966;11.038;2022-08-21T03:53:57;16.20;99.90
30381;DHT22;17169;50.966;11.038;2022-08-21T03:57:00;16.20;99.90
30381;DHT22;17169;50.966;11.038;2022-08-21T04:00:04;16.20;99.90
30381;DHT22;17169;50.966;11.038;2022-08-21T04:03:08;16.20;99.90
30381;DHT22;17169;50.966;11.038;2022-08-21T04:06:11;16.20;99.90
30381;DHT22;17169;50.966;11.038;2022-08-21T04:09:15;16.10;99.90
30381;DHT22;17169;50.966;11.038;2022-08-21T04:12:17;16.10;99.90
30381;DHT22;17169;50.966;11.038;2022-08-21T04:15:21;16.10;99.90
30381;DHT22;17169;50.966;11.038;2022-08-21T04:18:24;16.20;99.90
30381;DHT22;17169;50.966;11.038;2022-08-21T04:21:26;16.20;99.90
30381;DHT22;17169;50.966;11.038;2022-08-21T04:24:30;16.30;99.90
30381;DHT22;17169;50.966;11.038;2022-08-21T04:27:33;16.30;99.90
30381;DHT22;17169;50.966;11.038;2022-08-21T04:30:35;16.40;99.90
30381;DHT22;17169;50.966;11.038;2022-08-21T04:33:38;16.50;99.90
30381;DHT22;17169;50.966;11.038;2022-08-21T04:36:40;16.60;99.90
30381;DHT22;17169;50.966;11.038;2022-08-21T04:39:44;16.70;99.90
30381;DHT22;17169;50.966;11.038;2022-08-21T04:42:49;16.80;99.90
30381;DHT22;17169;50.966;11.038;2022-08-21T04:45:51;16.90;99.90
30381;DHT22;17169;50.966;11.038;2022-08-21T04:48:55;16.90;99.90
30381;DHT22;17169;50.966;11.038;2022-08-21T04:51:58;17.00;99.90
30381;DHT22;17169;50.966;11.038;2022-08-21T04:55:02;17.00;99.90
30381;DHT22;17169;50.966;11.038;2022-08-21T04:58:06;17.00;99.90
30381;DHT22;17169;50.966;11.038;2022-08-21T05:01:12;17.00;99.90
30381;DHT22;17169;50.966;11.038;2022-08-21T05:04:18;17.10;99.90
30381;DHT22;17169;50.966;11.038;2022-08-21T05:07:23;17.10;99.90
30381;DHT22;17169;50.966;11.038;2022-08-21T05:10:30;17.20;99.90
30381;DHT22;17169;50.966;11.038;2022-08-21T05:13:33;17.20;99.90
30381;DHT22;17169;50.966;11.038;2022-08-21T05:16:36;17.10;99.90
30381;DHT22;17169;50.966;11.038;2022-08-21T05:19:39;17.20;99.90
30381;DHT22;17169;50.966;11.038;2022-08-21T05:22:41;17.10;99.90
30381;DHT22;17169;50.966;11.038;2022-08-21T05:25:45;17.30;99.90
30381;DHT22;17169;50.966;11.038;2022-08-21T05:28:48;17.40;99.90
30381;DHT22;17169;50.966;11.038;2022-08-21T05:31:50;17.50;99.90
30381;DHT22;17169;50.966;11.038;2022-08-21T05:34:53;17.60;99.90
30381;DHT22;17169;50.966;11.038;2022-08-21T05:37:56;17.60;99.90
30381;DHT22;17169;50.966;11.038;2022-08-21T05:41:00;17.60;99.90
30381;DHT22;17169;50.966;11.038;2022-08-21T05:44:03;17.70;99.90
30381;DHT22;17169;50.966;11.038;2022-08-21T05:47:06;17.70;99.90
30381;DHT22;17169;50.966;11.038;2022-08-21T05:50:09;17.70;99.90
30381;DHT22;17169;50.966;11.038;2022-08-21T05:53:12;17.60;99.90
30381;DHT22;17169;50.966;11.038;2022-08-21T05:56:16;17.70;99.90
30381;DHT22;17169;50.966;11.038;2022-08-21T05:59:18;17.70;99.90
30381;DHT22;17169;50.966;11.038;2022-08-21T06:02:21;17.70;99.90
30381;DHT22;17169;50.966;11.038;2022-08-21T06:05:24;17.70;99.90
30381;DHT22;17169;50.966;11.038;2022-08-21T06:08:28;17.70;99.90
30381;DHT22;17169;50.966;11.038;2022-08-21T06:11:32;17.70;99.90
30381;DHT22;17169;50.966;11.038;2022-08-21T06:14:35;17.70;99.90
30381;DHT22;17169;50.966;11.038;2022-08-21T06:17:38;17.70;99.90
30381;DHT22;17169;50.966;11.038;2022-08-21T06:20:41;17.80;99.90
30381;DHT22;17169;50.966;11.038;2022-08-21T06:23:43;17.80;99.90
30381;DHT22;17169;50.966;11.038;2022-08-21T06:26:47;17.90;99.90
30381;DHT22;17169;50.966;11.038;2022-08-21T06:29:50;18.00;99.90
30381;DHT22;17169;50.966;11.038;2022-08-21T06:32:52;18.10;99.90
30381;DHT22;17169;50.966;11.038;2022-08-21T06:35:55;18.10;99.90
30381;DHT22;17169;50.966;11.038;2022-08-21T06:38:57;18.20;99.90
30381;DHT22;17169;50.966;11.038;2022-08-21T06:42:01;18.30;99.90
30381;DHT22;17169;50.966;11.038;2022-08-21T06:45:05;18.40;99.90
30381;DHT22;17169;50.966;11.038;2022-08-21T06:48:07;18.50;99.90
30381;DHT22;17169;50.966;11.038;2022-08-21T06:51:11;18.60;99.90
30381;DHT22;17169;50.966;11.038;2022-08-21T06:54:14;18.70;99.90
30381;DHT22;17169;50.966;11.038;2022-08-21T06:57:17;18.70;99.90
30381;DHT22;17169;50.966;11.038;2022-08-21T07:00:20;18.90;99.90
30381;DHT22;17169;50.966;11.038;2022-08-21T07:03:25;19.00;99.90
30381;DHT22;17169;50.966;11.038;2022-08-21T07:06:27;19.20;99.90
30381;DHT22;17169;50.966;11.038;2022-08-21T07:09:30;19.30;99.90
30381;DHT22;17169;50.966;11.038;2022-08-21T07:12:35;19.40;99.90
30381;DHT22;17169;50.966;11.038;2022-08-21T07:15:37;19.50;99.90
30381;DHT22;17169;50.966;11.038;2022-08-21T07:18:40;19.60;99.90
30381;DHT22;17169;50.966;11.038;2022-08-21T07:21:42;19.60;99.90
30381;DHT22;17169;50.966;11.038;2022-08-21T07:24:44;19.60;99.90
30381;DHT22;17169;50.966;11.038;2022-08-21T07:27:48;19.70;99.90
30381;DHT22;17169;50.966;11.038;2022-08-21T07:30:52;19.70;99.90
30381;DHT22;17169;50.966;11.038;2022-08-21T07:33:55;19.80;99.90
30381;DHT22;17169;50.966;11.038;2022-08-21T07:36:58;19.90;99.90
30381;DHT22;17169;50.966;11.038;2022-08-21T07:40:00;20.00;99.90
30381;DHT22;17169;50.966;11.038;2022-08-21T07:43:04;20.10;99.90
30381;DHT22;17169;50.966;11.038;2022-08-21T07:46:06;20.20;99.90
30381;DHT22;17169;50.966;11.038;2022-08-21T07:49:09;20.30;99.90
30381;DHT22;17169;50.966;11.038;2022-08-21T07:52:11;20.30;99.90
30381;DHT22;17169;50.966;11.038;2022-08-21T07:55:17;20.50;99.90
30381;DHT22;17169;50.966;11.038;2022-08-21T07:58:21;20.60;99.90
30381;DHT22;17169;50.966;11.038;2022-08-21T08:01:24;20.90;99.90
30381;DHT22;17169;50.966;11.038;2022-08-21T08:04:27;21.10;99.90
30381;DHT22;17169;50.966;11.038;2022-08-21T08:07:29;21.20;99.90
30381;DHT22;17169;50.966;11.038;2022-08-21T08:10:32;21.30;99.90
30381;DHT22;17169;50.966;11.038;2022-08-21T08:13:39;21.40;99.90
30381;DHT22;17169;50.966;11.038;2022-08-21T08:16:42;21.40;99.90
30381;DHT22;17169;50.966;11.038;2022-08-21T08:19:45;21.20;99.90
30381;DHT22;17169;50.966;11.038;2022-08-21T08:22:47;21.20;99.90
30381;DHT22;17169;50.966;11.038;2022-08-21T08:25:50;21.40;99.90
30381;DHT22;17169;50.966;11.038;2022-08-21T08:28:54;21.50;99.90
30381;DHT22;17169;50.966;11.038;2022-08-21T08:31:56;21.70;99.90
30381;DHT22;17169;50.966;11.038;2022-08-21T08:34:59;21.90;99.90
30381;DHT22;17169;50.966;11.038;2022-08-21T08:38:01;22.00;99.90
30381;DHT22;17169;50.966;11.038;2022-08-21T08:41:10;22.30;99.90
30381;DHT22;17169;50.966;11.038;2022-08-21T08:44:15;22.40;99.90
30381;DHT22;17169;50.966;11.038;2022-08-21T08:47:18;22.40;99.90
30381;DHT22;17169;50.966;11.038;2022-08-21T08:50:24;22.40;99.90
30381;DHT22;17169;50.966;11.038;2022-08-21T08:53:31;22.50;99.90
30381;DHT22;17169;50.966;11.038;2022-08-21T08:56:35;22.50;99.90
30381;DHT22;17169;50.966;11.038;2022-08-21T08:59:41;22.70;99.90
30381;DHT22;17169;50.966;11.038;2022-08-21T09:02:46;23.00;99.90
30381;DHT22;17169;50.966;11.038;2022-08-21T09:05:53;23.20;99.90
30381;DHT22;17169;50.966;11.038;2022-08-21T09:09:05;23.40;99.90
30381;DHT22;17169;50.966;11.038;2022-08-21T09:12:18;23.70;99.90
30381;DHT22;17169;50.966;11.038;2022-08-21T09:15:32;24.00;99.90
30381;DHT22;17169;50.966;11.038;2022-08-21T09:18:52;24.30;99.90
30381;DHT22;17169;50.966;11.038;2022-08-21T09:22:02;24.20;99.90
30381;DHT22;17169;50.966;11.038;2022-08-21T09:25:11;24.30;99.90
30381;DHT22;17169;50.966;11.038;2022-08-21T09:28:14;24.30;99.70
30381;DHT22;17169;50.966;11.038;2022-08-21T09:31:22;24.10;99.90
30381;DHT22;17169;50.966;11.038;2022-08-21T09:34:27;24.00;99.90
30381;DHT22;17169;50.966;11.038;2022-08-21T09:37:32;23.90;99.90
30381;DHT22;17169;50.966;11.038;2022-08-21T09:40:36;23.80;99.90
30381;DHT22;17169;50.966;11.038;2022-08-21T09:43:39;23.60;99.90
30381;DHT22;17169;50.966;11.038;2022-08-21T09:46:51;23.70;99.90
30381;DHT22;17169;50.966;11.038;2022-08-21T09:49:53;23.60;99.90
30381;DHT22;17169;50.966;11.038;2022-08-21T09:52:58;23.50;99.90
30381;DHT22;17169;50.966;11.038;2022-08-21T09:56:04;23.70;99.90
30381;DHT22;17169;50.966;11.038;2022-08-21T09:59:27;23.80;99.90
30381;DHT22;17169;50.966;11.038;2022-08-21T10:02:34;24.20;99.90
30381;DHT22;17169;50.966;11.038;2022-08-21T10:05:39;24.40;99.90
30381;DHT22;17169;50.966;11.038;2022-08-21T10:08:42;24.70;99.10
30381;DHT22;17169;50.966;11.038;2022-08-21T10:11:52;24.80;98.80
30381;DHT22;17169;50.966;11.038;2022-08-21T10:15:03;24.80;98.00
30381;DHT22;17169;50.966;11.038;2022-08-21T10:18:12;24.80;97.50
30381;DHT22;17169;50.966;11.038;2022-08-21T10:21:23;24.90;97.60
30381;DHT22;17169;50.966;11.038;2022-08-21T10:24:32;25.10;97.90
30381;DHT22;17169;50.966;11.038;2022-08-21T10:27:45;25.30;97.90
30381;DHT22;17169;50.966;11.038;2022-08-21T10:30:57;25.40;97.70
30381;DHT22;17169;50.966;11.038;2022-08-21T10:34:11;25.50;97.50
30381;DHT22;17169;50.966;11.038;2022-08-21T10:37:39;25.60;97.20
30381;DHT22;17169;50.966;11.038;2022-08-21T10:40:53;25.60;96.80
30381;DHT22;17169;50.966;11.038;2022-08-21T10:44:05;25.70;95.80
30381;DHT22;17169;50.966;11.038;2022-08-21T10:47:14;25.70;95.80
30381;DHT22;17169;50.966;11.038;2022-08-21T10:50:28;25.60;96.00
30381;DHT22;17169;50.966;11.038;2022-08-21T10:53:41;25.40;95.70
30381;DHT22;17169;50.966;11.038;2022-08-21T10:56:48;25.20;94.80
30381;DHT22;17169;50.966;11.038;2022-08-21T10:59:57;25.10;95.20
30381;DHT22;17169;50.966;11.038;2022-08-21T11:03:05;24.80;94.30
30381;DHT22;17169;50.966;11.038;2022-08-21T11:06:14;24.70;94.40
30381;DHT22;17169;50.966;11.038;2022-08-21T11:09:20;24.60;94.50
30381;DHT22;17169;50.966;11.038;2022-08-21T11:12:27;24.40;94.60
30381;DHT22;17169;50.966;11.038;2022-08-21T11:15:36;24.30;94.90
30381;DHT22;17169;50.966;11.038;2022-08-21T11:18:45;24.30;95.40
30381;DHT22;17169;50.966;11.038;2022-08-21T11:21:54;24.70;96.00
30381;DHT22;17169;50.966;11.038;2022-08-21T11:25:06;25.10;95.90
30381;DHT22;17169;50.966;11.038;2022-08-21T11:28:15;25.40;94.40
30381;DHT22;17169;50.966;11.038;2022-08-21T11:31:32;25.80;93.30
30381;DHT22;17169;50.966;11.038;2022-08-21T11:34:47;26.00;93.10
30381;DHT22;17169;50.966;11.038;2022-08-21T11:38:02;26.30;92.90
30381;DHT22;17169;50.966;11.038;2022-08-21T11:41:21;26.50;92.50
30381;DHT22;17169;50.966;11.038;2022-08-21T11:44:33;26.70;91.70
30381;DHT22;17169;50.966;11.038;2022-08-21T11:47:55;27.00;90.30
30381;DHT22;17169;50.966;11.038;2022-08-21T11:51:00;27.30;89.10
30381;DHT22;17169;50.966;11.038;2022-08-21T11:54:12;27.40;85.50
30381;DHT22;17169;50.966;11.038;2022-08-21T11:57:21;27.60;87.80
30381;DHT22;17169;50.966;11.038;2022-08-21T12:00:28;27.80;83.80
30381;DHT22;17169;50.966;11.038;2022-08-21T12:03:34;28.10;85.00
30381;DHT22;17169;50.966;11.038;2022-08-21T12:06:40;28.20;81.90
30381;DHT22;17169;50.966;11.038;2022-08-21T12:09:54;28.00;80.40
30381;DHT22;17169;50.966;11.038;2022-08-21T12:13:06;27.90;82.40
30381;DHT22;17169;50.966;11.038;2022-08-21T12:16:12;27.90;80.40
30381;DHT22;17169;50.966;11.038;2022-08-21T12:19:31;27.60;78.10
30381;DHT22;17169;50.966;11.038;2022-08-21T12:22:38;27.50;79.20
30381;DHT22;17169;50.966;11.038;2022-08-21T12:25:44;27.40;78.10
30381;DHT22;17169;50.966;11.038;2022-08-21T12:28:47;27.20;79.30
30381;DHT22;17169;50.966;11.038;2022-08-21T12:31:56;27.10;79.30
30381;DHT22;17169;50.966;11.038;2022-08-21T12:35:05;27.20;79.80
30381;DHT22;17169;50.966;11.038;2022-08-21T12:38:14;27.60;81.00
30381;DHT22;17169;50.966;11.038;2022-08-21T12:41:21;28.10;77.10
30381;DHT22;17169;50.966;11.038;2022-08-21T12:44:30;28.50;75.60
30381;DHT22;17169;50.966;11.038;2022-08-21T12:47:49;28.90;76.90
30381;DHT22;17169;50.966;11.038;2022-08-21T12:50:54;29.20;75.40
30381;DHT22;17169;50.966;11.038;2022-08-21T12:53:59;29.40;74.40
30381;DHT22;17169;50.966;11.038;2022-08-21T12:57:05;29.90;74.40
30381;DHT22;17169;50.966;11.038;2022-08-21T13:00:11;30.40;72.20
30381;DHT22;17169;50.966;11.038;2022-08-21T13:03:15;30.20;70.60
30381;DHT22;17169;50.966;11.038;2022-08-21T13:06:19;30.10;71.20
30381;DHT22;17169;50.966;11.038;2022-08-21T13:09:26;30.00;68.00
30381;DHT22;17169;50.966;11.038;2022-08-21T13:12:32;30.10;70.60
30381;DHT22;17169;50.966;11.038;2022-08-21T13:15:39;30.70;69.10
30381;DHT22;17169;50.966;11.038;2022-08-21T13:18:54;31.00;66.30
30381;DHT22;17169;50.966;11.038;2022-08-21T13:21:57;31.10;65.60
30381;DHT22;17169;50.966;11.038;2022-08-21T13:25:01;30.90;65.60
30381;DHT22;17169;50.966;11.038;2022-08-21T13:28:07;30.50;66.60
30381;DHT22;17169;50.966;11.038;2022-08-21T13:31:13;30.20;66.60
30381;DHT22;17169;50.966;11.038;2022-08-21T13:34:20;30.10;64.90
30381;DHT22;17169;50.966;11.038;2022-08-21T13:37:23;30.10;65.10
30381;DHT22;17169;50.966;11.038;2022-08-21T13:40:31;30.30;63.50
30381;DHT22;17169;50.966;11.038;2022-08-21T13:43:36;30.60;64.50
30381;DHT22;17169;50.966;11.038;2022-08-21T13:46:39;31.60;62.00
30381;DHT22;17169;50.966;11.038;2022-08-21T13:49:44;32.30;60.20
30381;DHT22;17169;50.966;11.038;2022-08-21T13:52:54;33.00;58.50
30381;DHT22;17169;50.966;11.038;2022-08-21T13:55:58;33.30;57.60
30381;DHT22;17169;50.966;11.038;2022-08-21T13:59:03;34.40;58.20
30381;DHT22;17169;50.966;11.038;2022-08-21T14:02:11;35.90;54.70
30381;DHT22;17169;50.966;11.038;2022-08-21T14:05:20;37.30;53.80
30381;DHT22;17169;50.966;11.038;2022-08-21T14:08:29;38.70;50.90
30381;DHT22;17169;50.966;11.038;2022-08-21T14:11:34;40.00;48.70
30381;DHT22;17169;50.966;11.038;2022-08-21T14:14:39;41.10;46.40
30381;DHT22;17169;50.966;11.038;2022-08-21T14:17:44;42.10;45.00
30381;DHT22;17169;50.966;11.038;2022-08-21T14:20:46;42.70;41.70
30381;DHT22;17169;50.966;11.038;2022-08-21T14:24:02;42.50;40.90
30381;DHT22;17169;50.966;11.038;2022-08-21T14:27:06;42.50;41.20
30381;DHT22;17169;50.966;11.038;2022-08-21T14:30:13;43.60;40.10
30381;DHT22;17169;50.966;11.038;2022-08-21T14:33:23;42.50;38.70
30381;DHT22;17169;50.966;11.038;2022-08-21T14:36:27;41.00;39.40
30381;DHT22;17169;50.966;11.038;2022-08-21T14:39:29;40.80;40.70
30381;DHT22;17169;50.966;11.038;2022-08-21T14:42:32;41.90;41.00
30381;DHT22;17169;50.966;11.038;2022-08-21T14:45:35;42.60;39.40
30381;DHT22;17169;50.966;11.038;2022-08-21T14:48:41;43.70;39.00
30381;DHT22;17169;50.966;11.038;2022-08-21T14:51:43;44.50;37.70
30381;DHT22;17169;50.966;11.038;2022-08-21T14:54:46;44.80;36.70
30381;DHT22;17169;50.966;11.038;2022-08-21T14:57:50;45.10;36.60
30381;DHT22;17169;50.966;11.038;2022-08-21T15:00:55;45.40;35.80
30381;DHT22;17169;50.966;11.038;2022-08-21T15:03:59;45.90;37.30
30381;DHT22;17169;50.966;11.038;2022-08-21T15:07:01;46.80;35.40
30381;DHT22;17169;50.966;11.038;2022-08-21T15:10:04;46.60;34.70
30381;DHT22;17169;50.966;11.038;2022-08-21T15:13:07;46.60;34.70
30381;DHT22;17169;50.966;11.038;2022-08-21T15:16:12;46.80;34.60
30381;DHT22;17169;50.966;11.038;2022-08-21T15:19:15;47.70;34.60
30381;DHT22;17169;50.966;11.038;2022-08-21T15:22:17;48.40;33.40
30381;DHT22;17169;50.966;11.038;2022-08-21T15:25:20;49.00;33.90
30381;DHT22;17169;50.966;11.038;2022-08-21T15:28:22;48.80;33.00
30381;DHT22;17169;50.966;11.038;2022-08-21T15:31:26;49.60;32.80
30381;DHT22;17169;50.966;11.038;2022-08-21T15:34:30;50.20;31.70
30381;DHT22;17169;50.966;11.038;2022-08-21T15:37:33;50.00;30.60
30381;DHT22;17169;50.966;11.038;2022-08-21T15:40:35;49.90;31.10
30381;DHT22;17169;50.966;11.038;2022-08-21T15:43:39;50.30;31.40
30381;DHT22;17169;50.966;11.038;2022-08-21T15:46:44;50.40;30.20
30381;DHT22;17169;50.966;11.038;2022-08-21T15:49:46;49.30;30.40
30381;DHT22;17169;50.966;11.038;2022-08-21T15:52:49;49.30;31.90
30381;DHT22;17169;50.966;11.038;2022-08-21T15:55:52;49.00;31.00
30381;DHT22;17169;50.966;11.038;2022-08-21T15:59:00;49.10;31.40
30381;DHT22;17169;50.966;11.038;2022-08-21T16:02:04;49.60;31.60
30381;DHT22;17169;50.966;11.038;2022-08-21T16:05:08;49.20;30.70
30381;DHT22;17169;50.966;11.038;2022-08-21T16:08:11;49.00;32.30
30381;DHT22;17169;50.966;11.038;2022-08-21T16:11:14;49.30;31.30
30381;DHT22;17169;50.966;11.038;2022-08-21T16:14:17;49.60;31.40
30381;DHT22;17169;50.966;11.038;2022-08-21T16:17:24;49.70;30.90
30381;DHT22;17169;50.966;11.038;2022-08-21T16:20:28;49.80;30.70
30381;DHT22;17169;50.966;11.038;2022-08-21T16:23:31;49.70;29.90
30381;DHT22;17169;50.966;11.038;2022-08-21T16:26:33;49.10;29.90
30381;DHT22;17169;50.966;11.038;2022-08-21T16:29:36;48.50;30.70
30381;DHT22;17169;50.966;11.038;2022-08-21T16:32:41;48.20;30.80
30381;DHT22;17169;50.966;11.038;2022-08-21T16:35:44;46.60;30.60
30381;DHT22;17169;50.966;11.038;2022-08-21T16:38:46;44.30;31.60
30381;DHT22;17169;50.966;11.038;2022-08-21T16:41:49;42.40;32.70
30381;DHT22;17169;50.966;11.038;2022-08-21T16:44:53;40.50;33.40
30381;DHT22;17169;50.966;11.038;2022-08-21T16:47:57;38.70;35.00
30381;DHT22;17169;50.966;11.038;2022-08-21T16:51:00;37.20;35.90
30381;DHT22;17169;50.966;11.038;2022-08-21T16:54:03;36.00;36.20
30381;DHT22;17169;50.966;11.038;2022-08-21T16:57:05;34.80;38.50
30381;DHT22;17169;50.966;11.038;2022-08-21T17:00:09;33.90;39.00
30381;DHT22;17169;50.966;11.038;2022-08-21T17:03:16;33.20;40.10
30381;DHT22;17169;50.966;11.038;2022-08-21T17:06:20;32.60;41.20
30381;DHT22;17169;50.966;11.038;2022-08-21T17:09:23;32.00;41.50
30381;DHT22;17169;50.966;11.038;2022-08-21T17:12:25;31.50;41.80
30381;DHT22;17169;50.966;11.038;2022-08-21T17:15:32;30.90;42.60
30381;DHT22;17169;50.966;11.038;2022-08-21T17:18:37;30.50;43.00
30381;DHT22;17169;50.966;11.038;2022-08-21T17:21:39;30.10;43.30
30381;DHT22;17169;50.966;11.038;2022-08-21T17:24:42;29.70;43.60
30381;DHT22;17169;50.966;11.038;2022-08-21T17:27:46;29.50;44.20
30381;DHT22;17169;50.966;11.038;2022-08-21T17:30:51;29.10;44.50
30381;DHT22;17169;50.966;11.038;2022-08-21T17:33:55;28.90;45.20
30381;DHT22;17169;50.966;11.038;2022-08-21T17:36:58;28.60;45.50
30381;DHT22;17169;50.966;11.038;2022-08-21T17:40:00;28.30;45.60
30381;DHT22;17169;50.966;11.038;2022-08-21T17:43:06;28.10;46.30
30381;DHT22;17169;50.966;11.038;2022-08-21T17:46:09;27.90;46.90
30381;DHT22;17169;50.966;11.038;2022-08-21T17:49:15;27.70;47.60
30381;DHT22;17169;50.966;11.038;2022-08-21T17:52:17;27.50;49.20
30381;DHT22;17169;50.966;11.038;2022-08-21T17:55:20;27.30;49.70
30381;DHT22;17169;50.966;11.038;2022-08-21T17:58:23;27.10;51.20
30381;DHT22;17169;50.966;11.038;2022-08-21T18:01:27;26.90;51.40
30381;DHT22;17169;50.966;11.038;2022-08-21T18:04:31;26.70;52.30
30381;DHT22;17169;50.966;11.038;2022-08-21T18:07:34;26.60;53.20
30381;DHT22;17169;50.966;11.038;2022-08-21T18:10:38;26.40;53.90
30381;DHT22;17169;50.966;11.038;2022-08-21T18:13:41;26.30;54.00
30381;DHT22;17169;50.966;11.038;2022-08-21T18:16:43;26.10;55.00
30381;DHT22;17169;50.966;11.038;2022-08-21T18:19:47;26.00;55.40
30381;DHT22;17169;50.966;11.038;2022-08-21T18:22:50;25.90;56.10
30381;DHT22;17169;50.966;11.038;2022-08-21T18:25:56;25.70;56.90
30381;DHT22;17169;50.966;11.038;2022-08-21T18:29:00;25.60;57.00
30381;DHT22;17169;50.966;11.038;2022-08-21T18:32:04;25.40;57.50
30381;DHT22;17169;50.966;11.038;2022-08-21T18:35:09;25.30;57.90
30381;DHT22;17169;50.966;11.038;2022-08-21T18:38:13;25.20;58.40
30381;DHT22;17169;50.966;11.038;2022-08-21T18:41:15;25.00;58.60
30381;DHT22;17169;50.966;11.038;2022-08-21T18:44:20;24.90;59.50
30381;DHT22;17169;50.966;11.038;2022-08-21T18:47:26;24.70;59.60
30381;DHT22;17169;50.966;11.038;2022-08-21T18:50:31;24.60;60.20
30381;DHT22;17169;50.966;11.038;2022-08-21T18:53:33;24.50;60.90
30381;DHT22;17169;50.966;11.038;2022-08-21T18:56:36;24.40;61.80
30381;DHT22;17169;50.966;11.038;2022-08-21T18:59:38;24.30;62.30
30381;DHT22;17169;50.966;11.038;2022-08-21T19:02:42;24.20;63.10
30381;DHT22;17169;50.966;11.038;2022-08-21T19:05:46;24.00;63.90
30381;DHT22;17169;50.966;11.038;2022-08-21T19:08:49;23.90;64.60